createdAt,value
2023-03-25T00:03:00.700Z,99845.22
2023-03-25T00:08:04.004Z,99849.09
2023-03-25T00:13:08.411Z,99844.69
2023-03-25T00:18:11.121Z,99835.84
2023-03-25T00:23:14.383Z,99840.22
2023-03-25T00:28:18.554Z,99829.59
2023-03-25T00:33:22.588Z,99827.72
2023-03-25T00:38:33.515Z,99825.84
2023-03-25T00:43:38.336Z,99855.84
2023-03-25T00:48:42.139Z,99834.56
2023-03-25T00:53:45.119Z,99836.03
2023-03-25T00:58:49.338Z,99849.16
2023-03-25T01:03:57.700Z,99831.56
2023-03-25T01:09:02.001Z,99836.19
2023-03-25T01:14:07.402Z,99835.13
2023-03-25T01:19:10.974Z,99851.47
2023-03-25T01:24:15.312Z,99841.41
2023-03-25T01:29:22.274Z,99840.53
2023-03-25T01:34:25.474Z,99835.06
2023-03-25T01:39:28.974Z,99837.19
2023-03-25T01:45:09.892Z,99835.75
2023-03-25T01:50:15.362Z,99831.28
2023-03-25T01:55:20.216Z,99834.38
2023-03-25T02:00:23.431Z,99835.66
2023-03-25T02:05:33.804Z,99844.75
2023-03-25T02:10:37.459Z,99831.44
2023-03-25T02:15:55.353Z,99825.06
2023-03-25T02:21:28.162Z,99822.97
2023-03-25T02:27:14.940Z,99821.75
2023-03-25T02:32:31.507Z,99814.09
2023-03-25T02:38:02.160Z,99814.66
2023-03-25T02:43:07.250Z,99825.56
2023-03-25T02:48:15.759Z,99819.50
2023-03-25T02:53:22.769Z,99806.81
2023-03-25T02:58:27.676Z,99800.03
2023-03-25T03:03:30.924Z,99793.56
2023-03-25T03:08:58.462Z,99805.84
2023-03-25T03:14:11.378Z,99785.34
2023-03-25T03:19:24.107Z,99793.50
2023-03-25T03:24:31.937Z,99782.63
2023-03-25T03:29:38.119Z,99796.34
2023-03-25T03:34:46.500Z,99787.38
2023-03-25T03:39:52.122Z,99786.31
2023-03-25T03:44:58.220Z,99789.78
2023-03-25T03:50:05.339Z,99780.47
2023-03-25T03:55:14.025Z,99788.75
2023-03-25T04:00:19.779Z,99775.78
2023-03-25T04:05:24.422Z,99770.94
2023-03-25T04:10:34.766Z,99777.06
2023-03-25T04:15:38.665Z,99781.41
2023-03-25T04:20:44.698Z,99782.59
2023-03-25T04:25:49.968Z,99781.53
2023-03-25T04:30:55.652Z,99781.63
2023-03-25T04:36:01.989Z,99807.63
2023-03-25T04:41:07.812Z,99800.50
2023-03-25T04:46:12.516Z,99798.00
2023-03-25T04:51:16.477Z,99800.22
2023-03-25T04:56:20.879Z,99796.00
2023-03-25T05:01:30.953Z,99791.44
2023-03-25T05:06:34.623Z,99797.81
2023-03-25T05:11:41.749Z,99803.94
2023-03-25T05:16:45.418Z,99796.97
2023-03-25T05:21:48.653Z,99798.84
2023-03-25T05:26:52.789Z,99808.72
2023-03-25T05:31:55.818Z,99820.00
2023-03-25T05:36:58.766Z,99814.72
2023-03-25T05:42:03.295Z,99823.69
2023-03-25T05:47:07.433Z,99827.69
2023-03-25T05:52:11.792Z,99832.69
2023-03-25T05:57:16.075Z,99835.91
2023-03-25T06:02:19.673Z,99834.41
2023-03-25T06:07:22.877Z,99832.69
2023-03-25T06:12:27.632Z,99854.72
2023-03-25T06:17:30.652Z,99851.44
2023-03-25T06:22:34.087Z,99855.03
2023-03-25T06:27:40.422Z,99864.28
2023-03-25T06:32:43.605Z,99846.06
2023-03-25T06:37:47.210Z,99828.34
2023-03-25T06:42:57.834Z,99840.44
2023-03-25T06:48:09.922Z,99842.41
2023-03-25T06:53:12.902Z,99857.59
2023-03-25T06:58:17.463Z,99867.63
2023-03-25T07:03:20.475Z,99863.44
2023-03-25T07:08:23.973Z,99853.19
2023-03-25T07:13:28.332Z,99867.88
2023-03-25T07:18:31.488Z,99866.53
2023-03-25T07:23:34.512Z,99864.00
2023-03-25T07:28:39.257Z,99874.19
2023-03-25T07:33:42.657Z,99864.91
2023-03-25T07:38:46.287Z,99862.13
2023-03-25T07:43:50.823Z,99874.06
2023-03-25T07:49:02.385Z,99890.13
2023-03-25T07:54:06.033Z,99882.63
2023-03-25T07:59:10.986Z,99904.41
2023-03-25T08:04:14.731Z,99879.03
2023-03-25T08:09:17.933Z,99877.06
2023-03-25T08:14:22.347Z,99890.91
2023-03-25T08:19:25.728Z,99885.22
2023-03-25T08:24:30.107Z,99900.06
2023-03-25T08:29:34.752Z,99905.13
2023-03-25T08:34:39.862Z,99912.81
2023-03-25T08:39:45.218Z,99920.22
2023-03-25T08:44:49.715Z,99924.41
2023-03-25T08:49:52.796Z,99912.44
2023-03-25T08:54:55.965Z,99927.44
2023-03-25T09:00:00.499Z,99936.09
2023-03-25T09:05:04.632Z,99925.91
2023-03-25T09:10:09.455Z,99912.63
2023-03-25T09:15:14.204Z,99907.69
2023-03-25T09:20:18.784Z,99914.03
2023-03-25T09:25:21.977Z,99925.25
2023-03-25T09:30:26.458Z,99932.41
2023-03-25T09:35:29.508Z,99940.28
2023-03-25T09:40:32.977Z,99956.69
2023-03-25T09:45:39.101Z,99956.13
2023-03-25T09:50:43.228Z,99947.50
2023-03-25T09:55:48.213Z,99960.88
2023-03-25T10:00:57.798Z,99942.38
2023-03-25T10:06:20.307Z,99953.06
2023-03-25T10:11:28.439Z,99955.25
2023-03-25T10:16:39.924Z,99953.91
2023-03-25T10:21:48.209Z,99968.09
2023-03-25T10:26:54.853Z,99968.16
2023-03-25T10:32:01.706Z,99970.94
2023-03-25T10:37:05.720Z,99968.81
2023-03-25T10:42:18.311Z,99971.78
2023-03-25T10:47:26.364Z,99982.47
2023-03-25T10:52:29.337Z,99986.84
2023-03-25T10:57:32.400Z,99982.53
2023-03-25T11:02:36.693Z,99987.28
2023-03-25T11:07:41.739Z,99976.75
2023-03-25T11:12:46.240Z,99993.19
2023-03-25T11:17:58.019Z,99993.34
2023-03-25T11:23:07.163Z,100007.75
2023-03-25T11:28:17.299Z,99996.78
2023-03-25T11:33:26.159Z,99998.78
2023-03-25T11:38:32.404Z,100005.78
2023-03-25T11:43:37.228Z,100021.38
2023-03-25T11:48:43.002Z,100016.94
2023-03-25T11:53:46.891Z,99995.69
2023-03-25T11:58:50.331Z,99996.81
2023-03-25T12:04:08.165Z,100015.06
2023-03-25T12:09:13.055Z,100010.56
2023-03-25T12:14:24.885Z,100009.72
2023-03-25T12:19:35.637Z,99996.91
2023-03-25T12:24:53.011Z,99996.78
2023-03-25T12:30:00.706Z,100020.19
2023-03-25T12:35:20.685Z,99992.28
2023-03-25T12:40:37.441Z,100003.63
2023-03-25T12:45:58.818Z,100005.56
2023-03-25T12:51:07.206Z,99979.91
2023-03-25T12:56:19.286Z,99968.22
2023-03-25T13:01:29.379Z,100027.66
2023-03-25T13:06:36.733Z,100004.09
2023-03-25T13:11:42.261Z,100001.91
2023-03-25T13:16:45.846Z,99996.53
2023-03-25T13:21:52.689Z,100005.09
2023-03-25T13:26:56.744Z,100019.72
2023-03-25T13:32:02.568Z,100059.31
2023-03-25T13:37:10.087Z,100048.94
2023-03-25T13:42:17.796Z,100070.50
2023-03-25T13:47:25.721Z,100060.00
2023-03-25T13:52:33.872Z,100092.19
2023-03-25T13:57:52.990Z,100084.97
2023-03-25T14:03:28.432Z,100096.47
2023-03-25T14:08:49.173Z,100113.75
2023-03-25T14:13:55.408Z,100126.81
2023-03-25T14:19:02.423Z,100115.34
2023-03-25T14:24:12.134Z,100101.09
2023-03-25T14:29:23.842Z,100114.75
2023-03-25T14:34:28.093Z,100124.16
2023-03-25T14:39:42.791Z,100130.06
2023-03-25T14:44:49.441Z,100128.13
2023-03-25T14:49:56.125Z,100123.22
2023-03-25T14:55:03.051Z,100140.88
2023-03-25T15:00:13.868Z,100149.38
2023-03-25T15:05:19.605Z,100187.63
2023-03-25T15:10:29.463Z,100180.06
2023-03-25T15:15:34.721Z,100205.53
2023-03-25T15:20:37.766Z,100192.88
2023-03-25T15:25:42.883Z,100214.13
2023-03-25T15:31:03.833Z,100207.97
2023-03-25T15:36:19.069Z,100208.94
2023-03-25T15:42:01.844Z,100207.56
2023-03-25T15:47:30.579Z,100209.50
2023-03-25T15:53:01.180Z,100231.19
2023-03-25T15:58:06.001Z,100229.38
2023-03-25T16:03:15.195Z,100240.03
2023-03-25T16:08:21.623Z,100252.59
2023-03-25T16:13:24.703Z,100255.06
2023-03-25T16:18:29.477Z,100245.34
2023-03-25T16:23:32.451Z,100241.75
2023-03-25T16:28:38.283Z,100256.03
2023-03-25T16:33:42.538Z,100258.53
2023-03-25T16:38:45.554Z,100266.47
2023-03-25T16:43:48.471Z,100274.53
2023-03-25T16:48:54.297Z,100283.69
2023-03-25T16:53:59.710Z,100290.53
2023-03-25T16:59:04.597Z,100289.09
2023-03-25T17:04:13.310Z,100290.34
2023-03-25T17:09:18.654Z,100302.22
2023-03-25T17:14:23.316Z,100296.91
2023-03-25T17:19:30.572Z,100306.00
2023-03-25T17:24:41.772Z,100307.97
2023-03-25T17:29:51.044Z,100318.41
2023-03-25T17:35:01.020Z,100324.34
2023-03-25T17:40:12.577Z,100337.69
2023-03-25T17:45:16.424Z,100342.47
2023-03-25T17:50:22.904Z,100358.13
2023-03-25T17:55:25.853Z,100360.38
2023-03-25T18:00:28.748Z,100372.53
2023-03-25T18:05:32.956Z,100380.53
2023-03-25T18:10:36.538Z,100392.06
2023-03-25T18:15:40.602Z,100402.28
2023-03-25T18:20:45.984Z,100411.06
2023-03-25T18:25:49.158Z,100412.13
2023-03-25T18:30:54.051Z,100418.56
2023-03-25T18:35:59.978Z,100429.69
2023-03-25T18:41:02.942Z,100436.78
2023-03-25T18:46:06.194Z,100436.78
2023-03-25T18:51:13.046Z,100448.09
2023-03-25T18:56:16.062Z,100457.00
2023-03-25T19:01:21.651Z,100456.78
2023-03-25T19:06:26.460Z,100465.91
2023-03-25T19:11:30.661Z,100463.78
2023-03-25T19:16:33.604Z,100465.91
2023-03-25T19:21:37.813Z,100462.44
2023-03-25T19:26:41.394Z,100480.09
2023-03-25T19:31:44.258Z,100481.69
2023-03-25T19:36:48.397Z,100486.19
2023-03-25T19:41:52.788Z,100484.25
2023-03-25T19:46:55.973Z,100492.06
2023-03-25T19:52:00.136Z,100502.50
2023-03-25T19:57:03.051Z,100508.28
2023-03-25T20:02:07.074Z,100506.28
2023-03-25T20:07:11.327Z,100505.47
2023-03-25T20:12:14.116Z,100511.00
2023-03-25T20:17:16.919Z,100499.41
2023-03-25T20:22:24.941Z,100498.63
2023-03-25T20:27:28.156Z,100502.06
2023-03-25T20:32:40.444Z,100501.16
2023-03-25T20:37:48.691Z,100501.59
2023-03-25T20:42:51.743Z,100491.34
2023-03-25T20:47:54.629Z,100500.28
2023-03-25T20:52:59.383Z,100507.94
2023-03-25T20:58:02.210Z,100520.03
2023-03-25T21:03:05.214Z,100509.47
2023-03-25T21:08:09.480Z,100522.50
2023-03-25T21:13:12.695Z,100519.06
2023-03-25T21:18:15.746Z,100520.81
2023-03-25T21:23:20.601Z,100524.03
2023-03-25T21:28:24.249Z,100521.44
2023-03-25T21:33:27.206Z,100524.00
2023-03-25T21:38:31.972Z,100521.38
2023-03-25T21:43:36.326Z,100537.28
2023-03-25T21:48:44.892Z,100531.16
2023-03-25T21:53:50.259Z,100525.03
2023-03-25T21:58:53.324Z,100539.19
2023-03-25T22:03:57.292Z,100553.97
2023-03-25T22:09:05.397Z,100558.13
2023-03-25T22:14:09.730Z,100566.91
2023-03-25T22:19:12.969Z,100570.34
2023-03-25T22:24:17.178Z,100572.19
2023-03-25T22:29:20.064Z,100586.50
2023-03-25T22:34:23.209Z,100586.59
2023-03-25T22:39:28.298Z,100590.28
2023-03-25T22:44:31.183Z,100604.13
2023-03-25T22:49:34.019Z,100607.16
2023-03-25T22:54:38.222Z,100619.78
2023-03-25T22:59:41.125Z,100606.91
2023-03-25T23:04:44.197Z,100613.75
2023-03-25T23:09:48.418Z,100608.75
2023-03-25T23:14:52.738Z,100602.22
2023-03-25T23:19:55.865Z,100599.59
2023-03-25T23:24:59.974Z,100603.09
2023-03-25T23:30:03.093Z,100604.03
2023-03-25T23:35:06.631Z,100599.50
2023-03-25T23:40:12.525Z,100590.72
2023-03-25T23:45:15.644Z,100591.44
2023-03-25T23:50:19.397Z,100590.59
2023-03-25T23:55:23.629Z,100595.75
